Time;durP1;ratioP1;P1;durP2;ratioP2;P2;SDS_P1;SDS_P2;PMS_P1;PMS_P2;Temp;Humidity;BMP_temperature;BMP_pressure;BME280_temperature;BME280_humidity;BME280_pressure;Samples;Min_cycle;Max_cycle;Signal;HPM_P1;HPM_P2
2023/01/02 00:00:14;;;;;;;4.13;2.28;;;4.00;99.90;;;;;;10206507;23;20067;-77
2023/01/02 00:04:14;;;;;;;3.33;1.92;;;4.20;99.90;;;;;;10232054;23;20013;-77
2023/01/02 00:08:16;;;;;;;2.35;1.55;;;4.30;99.90;;;;;;10205429;23;20064;-79
2023/01/02 00:12:17;;;;;;;3.22;1.55;;;4.30;99.90;;;;;;10232108;23;20428;-78
2023/01/02 00:16:17;;;;;;;2.40;1.83;;;4.10;99.90;;;;;;10206032;23;20060;-78
2023/01/02 00:20:18;;;;;;;3.47;1.60;;;4.00;99.90;;;;;;10206199;23;20406;-78
2023/01/02 00:24:18;;;;;;;1.73;1.13;;;3.90;99.90;;;;;;10205833;23;20009;-77
2023/01/02 00:28:19;;;;;;;4.70;1.48;;;3.90;99.90;;;;;;10205458;23;20009;-77
2023/01/02 00:32:19;;;;;;;2.55;1.40;;;3.90;99.90;;;;;;10206088;23;20053;-77
2023/01/02 00:36:20;;;;;;;2.60;1.30;;;3.90;99.90;;;;;;10206310;23;20012;-78
2023/01/02 00:40:20;;;;;;;2.45;1.60;;;3.90;99.90;;;;;;10206329;23;20009;-78
2023/01/02 00:44:21;;;;;;;2.53;1.50;;;3.90;99.90;;;;;;10204988;23;20005;-78
2023/01/02 00:48:22;;;;;;;2.83;1.30;;;4.00;99.90;;;;;;10206334;23;20111;-77
2023/01/02 00:52:22;;;;;;;1.58;1.17;;;4.10;99.90;;;;;;10231918;23;19997;-78
2023/01/02 00:56:23;;;;;;;1.75;1.17;;;4.10;99.90;;;;;;10231806;23;20012;-78
2023/01/02 01:00:23;;;;;;;2.08;1.20;;;4.30;99.90;;;;;;10205960;23;20009;-78
2023/01/02 01:04:24;;;;;;;2.53;1.20;;;4.30;99.90;;;;;;10231508;23;20068;-78
2023/01/02 01:08:24;;;;;;;2.65;1.23;;;4.20;99.90;;;;;;10230546;23;20016;-78
2023/01/02 01:12:25;;;;;;;2.33;1.10;;;4.20;99.90;;;;;;10205708;23;20096;-78
2023/01/02 01:16:26;;;;;;;2.33;1.00;;;4.10;99.90;;;;;;10205767;23;20064;-80
2023/01/02 01:20:26;;;;;;;1.50;1.15;;;4.00;99.90;;;;;;10230822;23;20032;-78
2023/01/02 01:24:27;;;;;;;1.95;1.05;;;4.00;99.90;;;;;;10231328;23;20012;-77
2023/01/02 01:28:28;;;;;;;1.50;0.95;;;4.00;99.90;;;;;;10231980;23;20013;-78
2023/01/02 01:32:28;;;;;;;2.45;1.35;;;4.00;99.90;;;;;;10205760;23;20023;-79
2023/01/02 01:36:29;;;;;;;1.10;0.88;;;4.00;99.90;;;;;;10205861;23;20009;-79
2023/01/02 01:40:39;;;;;;;1.30;1.00;;;4.10;99.90;;;;;;10206016;23;20009;-78
2023/01/02 01:44:43;;;;;;;2.28;1.20;;;4.20;99.90;;;;;;10205616;23;20009;-78
2023/01/02 01:48:44;;;;;;;1.45;0.93;;;4.10;99.90;;;;;;10232443;23;20005;-79
2023/01/02 01:52:53;;;;;;;1.25;0.90;;;3.90;99.90;;;;;;10232042;23;20115;-78
2023/01/02 01:56:58;;;;;;;3.22;1.15;;;3.90;99.90;;;;;;10205702;23;20370;-77
2023/01/02 02:01:00;;;;;;;2.28;0.90;;;3.90;99.90;;;;;;10232229;23;20012;-78
2023/01/02 02:05:04;;;;;;;1.08;0.73;;;3.90;99.90;;;;;;10207614;23;20032;-78
2023/01/02 02:09:24;;;;;;;2.03;1.00;;;3.80;99.90;;;;;;10234378;23;20347;-78
2023/01/02 02:13:25;;;;;;;1.42;0.90;;;3.80;99.90;;;;;;10208088;23;20084;-78
2023/01/02 02:18:17;;;;;;;1.02;0.90;;;3.80;99.90;;;;;;10207958;23;20012;-78
2023/01/02 02:22:39;;;;;;;2.70;1.13;;;3.90;99.90;;;;;;10182453;23;20076;-78
2023/01/02 02:26:48;;;;;;;1.45;0.90;;;4.00;99.90;;;;;;10233922;23;20016;-78
2023/01/02 02:31:16;;;;;;;5.65;1.10;;;4.30;99.90;;;;;;10234636;23;20052;-78
2023/01/02 02:35:37;;;;;;;2.28;1.13;;;4.30;99.90;;;;;;10233701;23;20005;-78
2023/01/02 02:39:46;;;;;;;1.27;0.75;;;4.20;99.90;;;;;;10207814;23;20016;-78
2023/01/02 02:43:56;;;;;;;3.85;1.00;;;4.00;99.90;;;;;;10234309;23;20008;-79
2023/01/02 02:48:30;;;;;;;1.20;0.68;;;4.00;99.90;;;;;;10207709;23;20005;-78
2023/01/02 02:52:33;;;;;;;1.98;1.00;;;3.80;99.90;;;;;;10232117;23;20008;-78
2023/01/02 02:56:34;;;;;;;1.60;1.10;;;3.70;99.90;;;;;;10233514;23;20455;-78
2023/01/02 03:00:35;;;;;;;1.65;1.00;;;3.80;99.90;;;;;;10208243;23;20478;-78
2023/01/02 03:04:37;;;;;;;1.20;0.85;;;3.70;99.90;;;;;;10207506;23;20060;-79
2023/01/02 03:08:59;;;;;;;2.20;1.00;;;3.80;99.90;;;;;;10207268;23;20347;-78
2023/01/02 03:13:22;;;;;;;1.95;1.30;;;4.10;99.90;;;;;;10233680;23;20087;-78
2023/01/02 03:17:43;;;;;;;1.17;0.85;;;4.40;99.90;;;;;;10231786;23;20056;-79
2023/01/02 03:21:52;;;;;;;3.03;0.90;;;4.50;99.90;;;;;;10233816;23;20001;-78
2023/01/02 03:25:54;;;;;;;1.00;0.73;;;4.50;99.90;;;;;;10207224;23;20009;-78
2023/01/02 03:30:07;;;;;;;1.52;0.90;;;4.60;99.90;;;;;;10207126;23;20344;-77
2023/01/02 03:34:13;;;;;;;1.67;0.90;;;3.90;99.90;;;;;;10232317;23;20424;-79
2023/01/02 03:38:20;;;;;;;1.45;0.80;;;3.60;99.90;;;;;;10207012;23;20012;-78
2023/01/02 03:42:28;;;;;;;2.13;1.08;;;3.40;99.90;;;;;;10207296;23;20009;-78
2023/01/02 03:46:54;;;;;;;1.45;0.70;;;3.30;99.90;;;;;;10231898;23;20013;-78
2023/01/02 03:50:57;;;;;;;2.28;1.02;;;3.20;99.90;;;;;;10207536;23;20001;-78
2023/01/02 03:54:59;;;;;;;1.27;0.80;;;3.10;99.90;;;;;;10206462;23;20072;-78
2023/01/02 03:59:11;;;;;;;1.38;0.88;;;3.20;99.90;;;;;;10233464;23;20007;-78
2023/01/02 04:03:41;;;;;;;2.03;1.02;;;3.30;99.90;;;;;;10232621;23;20009;-78
2023/01/02 04:07:52;;;;;;;1.45;0.85;;;3.30;99.90;;;;;;10201390;23;20017;-78
2023/01/02 04:12:00;;;;;;;1.42;0.90;;;3.10;99.90;;;;;;10233148;23;19997;-79
2023/01/02 04:16:02;;;;;;;1.45;0.90;;;3.20;99.90;;;;;;10233571;23;20140;-79
2023/01/02 04:20:12;;;;;;;1.63;0.95;;;3.00;99.90;;;;;;10234037;23;20432;-79
2023/01/02 04:24:17;;;;;;;1.73;0.90;;;3.00;99.90;;;;;;10232366;23;20020;-79
2023/01/02 04:28:24;;;;;;;2.42;1.05;;;2.80;99.90;;;;;;10233989;23;20005;-78
2023/01/02 04:32:28;;;;;;;1.30;0.82;;;3.00;99.90;;;;;;10232556;23;20001;-79
2023/01/02 04:36:29;;;;;;;0.90;0.65;;;3.10;99.90;;;;;;10207279;23;20100;-78
2023/01/02 04:40:30;;;;;;;1.48;1.00;;;3.30;99.90;;;;;;10233653;23;20343;-79
2023/01/02 04:44:30;;;;;;;1.05;0.82;;;3.40;99.90;;;;;;10207074;23;20001;-78
2023/01/02 04:48:31;;;;;;;1.25;0.60;;;3.50;99.90;;;;;;10206912;23;20100;-78
2023/01/02 04:52:32;;;;;;;1.02;0.82;;;3.50;99.90;;;;;;10206917;23;20645;-78
2023/01/02 04:56:32;;;;;;;1.20;0.70;;;3.30;99.90;;;;;;10233898;23;20452;-78
2023/01/02 05:00:33;;;;;;;2.38;0.90;;;3.20;99.90;;;;;;10232762;23;20432;-79
2023/01/02 05:04:33;;;;;;;2.35;0.70;;;3.10;99.90;;;;;;10233069;23;20020;-78
2023/01/02 05:08:35;;;;;;;1.33;0.80;;;3.10;99.90;;;;;;10207983;23;20233;-80
2023/01/02 05:12:36;;;;;;;1.35;0.80;;;3.00;99.90;;;;;;10232737;23;20012;-79
2023/01/02 05:16:37;;;;;;;0.90;0.60;;;3.30;99.90;;;;;;10207220;23;20403;-78
2023/01/02 05:20:37;;;;;;;1.00;0.60;;;3.50;99.90;;;;;;10207091;23;20071;-78
2023/01/02 05:24:38;;;;;;;1.73;0.82;;;3.70;99.90;;;;;;10205737;23;20448;-78
2023/01/02 05:28:38;;;;;;;1.27;0.73;;;3.50;99.90;;;;;;10232379;23;20015;-78
2023/01/02 05:32:39;;;;;;;1.58;0.80;;;3.40;99.90;;;;;;10204798;23;20440;-78
2023/01/02 05:36:41;;;;;;;1.23;0.55;;;3.40;99.90;;;;;;10232960;23;20005;-78
2023/01/02 05:40:41;;;;;;;0.98;0.70;;;3.40;99.90;;;;;;10208526;23;20005;-78
2023/01/02 05:44:42;;;;;;;1.17;0.70;;;3.10;99.90;;;;;;10235500;23;20011;-78
2023/01/02 05:48:43;;;;;;;2.17;1.00;;;3.10;99.90;;;;;;10235760;23;20382;-79
2023/01/02 05:52:44;;;;;;;1.13;0.70;;;3.30;99.90;;;;;;10208735;23;20012;-78
2023/01/02 05:56:44;;;;;;;2.80;1.17;;;3.30;99.90;;;;;;10234362;23;20024;-79
2023/01/02 06:00:45;;;;;;;1.27;0.73;;;3.40;99.90;;;;;;10208232;23;20448;-77
2023/01/02 06:04:45;;;;;;;1.17;0.95;;;3.40;99.90;;;;;;10207578;23;20009;-78
2023/01/02 06:08:46;;;;;;;1.52;0.85;;;3.80;99.90;;;;;;10235014;23;20008;-79
2023/01/02 06:12:46;;;;;;;1.75;0.80;;;4.20;99.90;;;;;;10209024;23;20005;-78
2023/01/02 06:16:47;;;;;;;1.63;0.68;;;4.20;99.90;;;;;;10209002;23;20064;-78
2023/01/02 06:20:47;;;;;;;1.10;0.70;;;4.20;99.90;;;;;;10234868;23;20345;-79
2023/01/02 06:24:48;;;;;;;1.30;0.93;;;4.10;99.90;;;;;;10207865;23;20009;-78
2023/01/02 06:28:51;;;;;;;1.00;0.68;;;4.10;99.90;;;;;;10208540;23;20041;-78
2023/01/02 06:32:51;;;;;;;1.48;0.77;;;4.10;99.90;;;;;;10208439;23;20084;-86
2023/01/02 06:36:52;;;;;;;1.50;0.80;;;4.00;99.90;;;;;;10210176;23;20008;-86
2023/01/02 06:40:58;;;;;;;0.68;0.52;;;3.80;99.90;;;;;;10210334;23;20059;-86
2023/01/02 06:44:58;;;;;;;1.15;0.75;;;3.80;99.90;;;;;;10237251;23;20336;-86
2023/01/02 06:48:59;;;;;;;1.20;0.70;;;3.80;99.90;;;;;;10210273;23;20040;-85
2023/01/02 06:52:59;;;;;;;2.28;1.33;;;4.10;99.90;;;;;;10210686;23;20371;-83
2023/01/02 06:57:00;;;;;;;3.15;1.02;;;4.00;99.90;;;;;;10210265;23;20009;-81
2023/01/02 07:01:05;;;;;;;1.52;0.90;;;4.00;99.90;;;;;;10209408;23;20009;-79
2023/01/02 07:05:06;;;;;;;3.75;1.60;;;3.90;99.90;;;;;;10234038;23;20456;-81
2023/01/02 07:09:07;;;;;;;3.17;2.10;;;3.70;99.90;;;;;;10235873;23;20048;-79
2023/01/02 07:13:07;;;;;;;3.15;1.55;;;3.60;99.90;;;;;;10234213;23;20531;-81
2023/01/02 07:17:08;;;;;;;2.40;1.35;;;3.50;99.90;;;;;;10209179;23;20056;-81
2023/01/02 07:21:10;;;;;;;4.25;2.35;;;3.50;99.90;;;;;;10209028;23;20012;-81
2023/01/02 07:25:10;;;;;;;6.10;3.25;;;3.70;99.90;;;;;;10208307;23;20012;-81
2023/01/02 07:29:11;;;;;;;3.00;1.60;;;4.10;99.90;;;;;;10235443;23;20001;-80
2023/01/02 07:33:11;;;;;;;3.75;1.83;;;4.30;99.90;;;;;;10234548;23;19997;-80
2023/01/02 07:37:12;;;;;;;4.28;2.28;;;4.70;99.90;;;;;;10235229;23;20011;-81
2023/01/02 07:41:14;;;;;;;3.88;2.20;;;4.80;99.90;;;;;;10209428;23;20056;-81
2023/01/02 07:45:15;;;;;;;5.70;2.92;;;4.90;99.90;;;;;;10235886;23;20005;-82
2023/01/02 07:49:15;;;;;;;5.63;3.08;;;5.00;99.90;;;;;;10209040;23;20013;-81
2023/01/02 07:53:16;;;;;;;4.93;2.92;;;5.10;99.90;;;;;;10209125;23;20011;-81
2023/01/02 07:57:16;;;;;;;5.88;3.55;;;5.20;99.90;;;;;;10234873;23;20001;-82
2023/01/02 08:01:17;;;;;;;5.68;3.22;;;5.40;99.90;;;;;;10207798;23;20055;-81
2023/01/02 08:05:18;;;;;;;6.63;2.55;;;5.70;99.90;;;;;;10207973;23;20095;-82
2023/01/02 08:09:18;;;;;;;5.90;3.20;;;6.00;99.90;;;;;;10234291;23;20530;-81
2023/01/02 08:13:19;;;;;;;5.32;2.63;;;6.60;99.90;;;;;;10234177;23;20087;-81
2023/01/02 08:17:19;;;;;;;7.72;4.20;;;6.80;99.90;;;;;;10207862;23;20452;-81
2023/01/02 08:21:21;;;;;;;4.28;2.88;;;7.20;99.90;;;;;;10207959;23;20020;-82
2023/01/02 08:25:21;;;;;;;2.92;1.48;;;7.00;99.90;;;;;;10208115;23;20091;-82
2023/01/02 08:29:22;;;;;;;4.15;1.98;;;7.30;99.90;;;;;;10234818;23;20454;-81
2023/01/02 08:33:22;;;;;;;3.47;1.80;;;7.20;99.90;;;;;;10207318;23;20367;-81
2023/01/02 08:37:23;;;;;;;3.63;2.10;;;7.20;99.90;;;;;;10207634;23;20033;-81
2023/01/02 08:41:38;;;;;;;2.65;2.10;;;7.40;99.90;;;;;;10234139;23;20005;-81
2023/01/02 08:45:38;;;;;;;4.35;2.30;;;7.60;99.90;;;;;;10231610;23;20041;-81
2023/01/02 08:49:39;;;;;;;5.45;3.03;;;7.70;99.90;;;;;;10207911;23;20028;-82
2023/01/02 08:53:39;;;;;;;5.05;3.17;;;7.90;99.90;;;;;;10208316;23;20005;-82
2023/01/02 08:57:40;;;;;;;6.85;3.05;;;8.00;99.90;;;;;;10234706;23;20001;-82
2023/01/02 09:01:41;;;;;;;8.80;3.90;;;8.50;99.90;;;;;;10207326;23;20008;-80
2023/01/02 09:05:42;;;;;;;7.20;4.00;;;8.50;99.90;;;;;;10206315;23;20021;-82
2023/01/02 09:09:42;;;;;;;7.93;3.50;;;8.70;99.90;;;;;;10207927;23;20005;-82
2023/01/02 09:13:43;;;;;;;6.63;3.40;;;9.20;99.90;;;;;;10211004;23;20009;-83
2023/01/02 09:17:44;;;;;;;5.80;2.83;;;9.30;99.90;;;;;;10211682;23;20047;-82
2023/01/02 09:21:44;;;;;;;6.07;3.95;;;9.60;99.90;;;;;;10211320;23;20013;-82
2023/01/02 09:25:45;;;;;;;12.50;6.40;;;10.00;99.90;;;;;;10212260;23;20363;-81
2023/01/02 09:29:45;;;;;;;9.35;5.22;;;10.50;99.90;;;;;;10212103;23;20359;-82
2023/01/02 09:33:46;;;;;;;8.90;4.68;;;10.30;99.90;;;;;;10211886;23;20012;-82
2023/01/02 09:37:47;;;;;;;6.60;4.15;;;10.30;99.90;;;;;;10236953;23;20012;-81
2023/01/02 09:41:51;;;;;;;5.68;2.95;;;10.40;99.90;;;;;;10211599;23;20009;-83
2023/01/02 09:45:57;;;;;;;5.53;3.00;;;10.50;99.90;;;;;;10212128;23;20371;-83
2023/01/02 09:50:10;;;;;;;3.95;2.10;;;10.30;99.90;;;;;;10212033;23;20040;-83
2023/01/02 09:54:31;;;;;;;3.88;1.85;;;10.40;99.90;;;;;;10211302;23;20088;-82
2023/01/02 09:58:44;;;;;;;4.05;2.05;;;10.60;99.90;;;;;;10237446;23;20001;-81
2023/01/02 10:02:54;;;;;;;8.00;4.80;;;10.60;99.90;;;;;;10211460;23;20013;-82
2023/01/02 10:07:11;;;;;;;7.60;4.38;;;10.70;99.90;;;;;;10209511;23;20056;-81
2023/01/02 10:11:28;;;;;;;15.95;8.20;;;11.00;99.90;;;;;;10235708;23;20000;-82
2023/01/02 10:15:30;;;;;;;14.32;7.43;;;11.00;99.90;;;;;;10209522;23;20656;-81
2023/01/02 10:19:55;;;;;;;11.82;6.70;;;11.50;99.90;;;;;;10210183;23;20040;-83
2023/01/02 10:24:06;;;;;;;10.93;5.28;;;11.70;99.90;;;;;;10235152;23;20001;-82
2023/01/02 10:28:16;;;;;;;5.93;3.15;;;11.80;99.90;;;;;;10234838;23;20001;-82
2023/01/02 10:32:19;;;;;;;11.43;4.47;;;12.00;99.90;;;;;;10208552;23;20020;-82
2023/01/02 10:36:25;;;;;;;4.95;2.75;;;12.10;99.90;;;;;;10234921;23;20028;-81
2023/01/02 10:40:26;;;;;;;7.20;2.22;;;12.10;99.90;;;;;;10207472;23;20008;-81
2023/01/02 10:44:32;;;;;;;4.22;1.80;;;12.30;99.90;;;;;;10207524;23;20172;-81
2023/01/02 10:48:35;;;;;;;3.90;2.25;;;12.30;99.90;;;;;;10206039;23;20384;-81
2023/01/02 10:52:51;;;;;;;2.65;1.40;;;12.50;99.90;;;;;;10208489;23;20079;-82
2023/01/02 10:56:53;;;;;;;3.33;1.48;;;12.50;99.90;;;;;;10207907;23;20009;-81
2023/01/02 11:01:18;;;;;;;4.10;1.42;;;12.70;99.90;;;;;;10232977;23;20009;-81
2023/01/02 11:05:22;;;;;;;2.53;1.15;;;12.80;99.90;;;;;;10232037;23;20456;-81
2023/01/02 11:09:34;;;;;;;4.57;1.20;;;13.10;99.90;;;;;;10204063;23;20021;-81
2023/01/02 11:13:47;;;;;;;4.38;1.20;;;13.30;99.90;;;;;;10204028;23;20025;-81
2023/01/02 11:17:48;;;;;;;1.67;0.80;;;13.50;99.90;;;;;;10202134;23;20088;-80
2023/01/02 11:21:51;;;;;;;5.18;1.27;;;13.70;99.90;;;;;;10202451;23;20005;-81
2023/01/02 11:25:53;;;;;;;3.15;1.15;;;14.00;99.90;;;;;;10203361;23;20001;-82
2023/01/02 11:29:54;;;;;;;2.40;1.10;;;14.00;99.90;;;;;;10204797;23;20044;-81
2023/01/02 11:34:08;;;;;;;3.70;1.38;;;13.90;99.90;;;;;;10230479;23;20443;-81
2023/01/02 11:38:23;;;;;;;2.25;1.23;;;14.00;99.90;;;;;;10229973;23;20005;-81
2023/01/02 11:46:55;;;;;;;3.00;1.38;;;14.10;99.90;;;;;;10234359;23;20622;-82
2023/01/02 11:50:56;;;;;;;2.30;1.40;;;14.10;99.90;;;;;;10208072;23;20602;-81
2023/01/02 11:55:06;;;;;;;1.50;1.08;;;14.00;99.90;;;;;;10207766;23;20005;-82
2023/01/02 11:59:30;;;;;;;3.38;1.30;;;14.20;99.90;;;;;;10208335;23;20379;-83
2023/01/02 12:03:32;;;;;;;4.53;1.50;;;14.20;99.90;;;;;;10234039;23;20025;-80
2023/01/02 12:07:44;;;;;;;4.97;1.70;;;14.30;99.90;;;;;;10233178;23;20428;-81
2023/01/02 12:12:00;;;;;;;3.63;1.40;;;14.40;99.90;;;;;;10231672;23;20392;-82
2023/01/02 12:16:22;;;;;;;3.08;1.27;;;14.30;99.90;;;;;;10206836;23;20043;-81
2023/01/02 12:20:32;;;;;;;4.28;1.30;;;14.10;99.90;;;;;;10207759;23;20008;-80
2023/01/02 12:24:54;;;;;;;2.63;1.40;;;13.30;99.90;;;;;;10232139;23;20013;-81
2023/01/02 12:29:16;;;;;;;2.85;1.27;;;13.20;99.90;;;;;;10208297;23;20013;-81
2023/01/02 12:33:22;;;;;;;3.85;1.60;;;13.50;99.90;;;;;;10233060;23;19997;-81
2023/01/02 12:37:44;;;;;;;4.00;1.38;;;13.70;99.90;;;;;;10206480;23;20009;-80
2023/01/02 12:41:50;;;;;;;2.50;1.50;;;13.70;99.90;;;;;;10203567;23;20099;-80
2023/01/02 12:46:26;;;;;;;3.00;1.58;;;13.60;99.90;;;;;;10206637;23;20008;-82
2023/01/02 12:50:38;;;;;;;3.00;1.73;;;13.40;99.90;;;;;;10207231;23;20016;-81
2023/01/02 12:55:15;;;;;;;4.03;1.65;;;13.30;99.90;;;;;;10204964;23;20001;-81
2023/01/02 13:00:03;;;;;;;3.47;1.90;;;13.20;99.90;;;;;;10229140;23;20009;-82
2023/01/02 13:04:13;;;;;;;2.30;1.40;;;13.10;99.90;;;;;;10151830;23;20332;-82
2023/01/02 13:08:19;;;;;;;3.50;1.48;;;13.10;99.90;;;;;;10206047;23;20065;-81
2023/01/02 13:12:24;;;;;;;2.92;1.50;;;13.10;99.90;;;;;;10231556;23;20013;-82
2023/01/02 13:16:26;;;;;;;2.33;1.50;;;13.00;99.90;;;;;;10205546;23;20185;-81
2023/01/02 13:20:38;;;;;;;10.95;1.45;;;13.00;99.90;;;;;;10231237;23;20064;-81
2023/01/02 13:24:39;;;;;;;4.25;1.55;;;12.90;99.90;;;;;;10205984;23;20061;-82
2023/01/02 13:28:51;;;;;;;5.65;2.10;;;12.60;99.90;;;;;;10206265;23;20087;-83
2023/01/02 13:32:51;;;;;;;4.63;1.60;;;12.40;99.90;;;;;;10233164;23;20008;-81
2023/01/02 13:37:05;;;;;;;2.45;1.42;;;12.30;99.90;;;;;;10232310;23;20420;-81
2023/01/02 13:41:05;;;;;;;3.22;1.38;;;12.10;99.90;;;;;;10206752;23;20009;-80
2023/01/02 13:45:29;;;;;;;3.60;1.60;;;12.10;99.90;;;;;;10231418;23;20431;-81
2023/01/02 13:49:31;;;;;;;5.72;1.50;;;11.90;99.90;;;;;;10206509;23;20089;-82
2023/01/02 13:53:35;;;;;;;2.60;1.42;;;11.50;99.90;;;;;;10206755;23;20063;-81
2023/01/02 13:57:36;;;;;;;3.88;1.52;;;11.30;99.90;;;;;;10207997;23;20033;-82
2023/01/02 14:02:00;;;;;;;8.45;1.42;;;11.10;99.90;;;;;;10210541;23;20017;-81
2023/01/02 14:06:04;;;;;;;6.10;2.00;;;11.10;99.90;;;;;;10209785;23;20640;-82
2023/01/02 14:10:25;;;;;;;5.55;1.52;;;11.10;99.90;;;;;;10208978;23;20013;-82
2023/01/02 14:14:34;;;;;;;4.95;1.70;;;11.00;99.90;;;;;;10209732;23;20005;-82
2023/01/02 14:18:36;;;;;;;3.10;1.58;;;10.90;99.90;;;;;;10209312;23;20009;-83
2023/01/02 14:22:46;;;;;;;2.92;1.70;;;10.90;99.90;;;;;;10209547;23;20012;-80
2023/01/02 14:26:53;;;;;;;3.80;1.77;;;10.80;99.90;;;;;;10207510;23;20060;-79
2023/01/02 14:30:55;;;;;;;4.13;1.52;;;10.70;99.90;;;;;;10208120;23;20009;-81
2023/01/02 14:34:57;;;;;;;4.47;1.65;;;10.80;99.90;;;;;;10208101;23;20107;-82
2023/01/02 14:38:58;;;;;;;4.95;1.45;;;10.80;99.90;;;;;;10236057;23;20005;-82
2023/01/02 14:43:31;;;;;;;2.90;1.40;;;10.90;99.90;;;;;;10208981;23;20063;-82
2023/01/02 14:47:41;;;;;;;3.42;1.85;;;10.80;99.90;;;;;;10232859;23;20013;-82
2023/01/02 14:51:49;;;;;;;2.47;1.48;;;10.70;99.90;;;;;;10207169;23;20005;-81
2023/01/02 14:55:54;;;;;;;5.10;2.00;;;10.70;99.90;;;;;;10207993;23;20001;-81
2023/01/02 14:59:57;;;;;;;3.47;1.60;;;10.70;99.90;;;;;;10206885;23;20017;-79
2023/01/02 15:04:13;;;;;;;3.85;1.52;;;10.50;99.90;;;;;;10206598;23;20347;-81
2023/01/02 15:08:26;;;;;;;4.38;1.75;;;10.30;99.90;;;;;;10230451;23;20009;-81
2023/01/02 15:16:58;;;;;;;3.33;1.70;;;9.90;99.90;;;;;;10233969;23;20016;-80
2023/01/02 15:21:07;;;;;;;6.63;1.60;;;9.70;99.90;;;;;;10233927;23;20207;-81
2023/01/02 15:25:12;;;;;;;10.07;4.45;;;9.80;99.90;;;;;;10207476;23;20016;-80
2023/01/02 15:29:27;;;;;;;31.42;12.57;;;9.70;99.90;;;;;;10207897;23;20466;-80
2023/01/02 15:33:32;;;;;;;58.55;23.17;;;9.60;99.90;;;;;;10233981;23;20100;-80
2023/01/02 15:37:32;;;;;;;13.30;4.47;;;9.50;99.90;;;;;;10232339;23;20071;-81
2023/01/02 15:41:41;;;;;;;34.50;12.65;;;9.60;99.90;;;;;;10207144;23;20383;-81
2023/01/02 15:45:47;;;;;;;12.05;3.63;;;9.80;99.90;;;;;;10207811;23;20009;-80
2023/01/02 15:49:48;;;;;;;10.40;4.35;;;9.80;99.90;;;;;;10233891;23;20024;-81
2023/01/02 15:53:50;;;;;;;4.55;2.42;;;9.80;99.90;;;;;;10207914;23;20061;-81
2023/01/02 15:57:53;;;;;;;6.10;2.75;;;10.00;99.90;;;;;;10208073;23;20008;-81
2023/01/02 16:01:54;;;;;;;6.40;1.90;;;9.90;99.90;;;;;;10231618;23;20015;-81
2023/01/02 16:05:56;;;;;;;3.75;1.70;;;9.90;99.90;;;;;;10206589;23;20485;-82
2023/01/02 16:09:57;;;;;;;3.53;1.63;;;9.80;99.90;;;;;;10236357;23;20013;-81
2023/01/02 16:14:20;;;;;;;7.10;1.73;;;9.80;99.90;;;;;;10209635;23;20519;-81
2023/01/02 16:18:22;;;;;;;4.82;1.80;;;9.60;99.90;;;;;;10209200;23;20013;-80
2023/01/02 16:22:33;;;;;;;5.45;2.97;;;9.80;99.90;;;;;;10207126;23;20016;-81
2023/01/02 16:26:40;;;;;;;9.18;3.40;;;9.90;99.90;;;;;;10234129;23;20009;-81
2023/01/02 16:30:42;;;;;;;7.53;2.80;;;9.70;99.90;;;;;;10233986;23;20092;-77
2023/01/02 16:34:43;;;;;;;12.52;7.10;;;9.60;99.90;;;;;;10231750;23;20008;-77
2023/01/02 16:38:48;;;;;;;6.93;2.75;;;9.60;99.90;;;;;;10232900;23;20024;-77
2023/01/02 16:42:54;;;;;;;7.72;1.80;;;9.60;99.90;;;;;;10232218;23;20005;-77
2023/01/02 16:46:55;;;;;;;7.25;1.50;;;9.50;99.90;;;;;;10229516;23;20017;-78
2023/01/02 16:50:57;;;;;;;7.32;2.30;;;9.50;99.90;;;;;;10205217;23;20036;-77
2023/01/02 16:54:58;;;;;;;10.07;1.92;;;9.20;99.90;;;;;;10204568;23;20029;-78
2023/01/02 16:58:58;;;;;;;6.00;1.58;;;9.30;99.90;;;;;;10232250;23;20522;-78
2023/01/02 17:02:59;;;;;;;2.45;1.45;;;9.10;99.90;;;;;;10229646;23;20009;-77
2023/01/02 17:06:59;;;;;;;6.30;1.73;;;9.00;99.90;;;;;;10203104;23;20606;-78
2023/01/02 17:11:00;;;;;;;5.40;2.83;;;9.20;99.90;;;;;;10201724;23;20001;-79
2023/01/02 17:15:01;;;;;;;12.75;6.45;;;9.00;99.90;;;;;;10228632;23;19997;-78
2023/01/02 17:19:01;;;;;;;8.77;4.82;;;9.10;99.90;;;;;;10226570;23;20005;-77
2023/01/02 17:23:04;;;;;;;6.13;3.00;;;9.10;99.90;;;;;;10227767;23;20019;-78
2023/01/02 17:27:04;;;;;;;9.43;2.58;;;9.00;99.90;;;;;;10225777;23;20032;-76
2023/01/02 17:31:05;;;;;;;5.13;2.83;;;9.00;99.90;;;;;;10199563;23;20005;-79
2023/01/02 17:35:06;;;;;;;6.18;3.60;;;9.10;99.90;;;;;;10202601;23;20048;-79
2023/01/02 17:39:07;;;;;;;6.53;2.72;;;9.30;99.90;;;;;;10205105;23;20656;-79
2023/01/02 17:43:07;;;;;;;17.25;7.75;;;9.40;99.90;;;;;;10204598;23;20005;-78
2023/01/02 17:47:08;;;;;;;41.15;15.25;;;9.60;99.90;;;;;;10229078;23;20064;-79
2023/01/02 17:51:09;;;;;;;29.92;14.10;;;9.80;99.90;;;;;;10228258;23;20001;-79
2023/01/02 17:55:10;;;;;;;6.68;3.75;;;9.90;99.90;;;;;;10227768;23;20004;-78
2023/01/02 17:59:12;;;;;;;9.52;3.67;;;9.80;99.90;;;;;;10226817;23;20009;-78
2023/01/02 18:03:13;;;;;;;6.53;3.00;;;9.80;99.90;;;;;;10227271;23;20092;-78
2023/01/02 18:07:14;;;;;;;8.88;3.22;;;9.80;99.90;;;;;;10204627;23;20538;-79
2023/01/02 18:11:16;;;;;;;26.08;10.73;;;9.80;99.90;;;;;;10227274;23;20036;-79
2023/01/02 18:15:20;;;;;;;6.55;2.30;;;9.90;99.90;;;;;;10224819;23;20005;-78
2023/01/02 18:19:23;;;;;;;10.02;5.35;;;10.10;99.90;;;;;;10202057;23;20128;-79
2023/01/02 18:23:24;;;;;;;4.93;1.42;;;10.00;99.90;;;;;;10225169;23;20016;-79
2023/01/02 18:27:28;;;;;;;5.10;1.80;;;10.10;99.90;;;;;;10226652;23;20011;-78
2023/01/02 18:31:33;;;;;;;3.30;1.35;;;10.00;99.90;;;;;;10202444;23;20117;-79
2023/01/02 18:35:34;;;;;;;5.88;1.60;;;9.90;99.90;;;;;;10227956;23;20471;-78
2023/01/02 18:39:41;;;;;;;2.35;1.05;;;10.00;99.90;;;;;;10202837;23;20013;-77
2023/01/02 18:43:44;;;;;;;1.88;1.15;;;10.00;99.90;;;;;;10201036;23;20407;-77
2023/01/02 18:47:46;;;;;;;2.88;1.10;;;10.20;99.90;;;;;;10228125;23;20032;-77
2023/01/02 18:51:46;;;;;;;2.30;1.10;;;10.20;99.90;;;;;;10202202;23;20011;-77
2023/01/02 18:55:49;;;;;;;2.85;1.20;;;10.10;99.90;;;;;;10201968;23;20005;-77
2023/01/02 18:59:51;;;;;;;4.85;1.55;;;9.90;99.90;;;;;;10202598;23;20380;-77
2023/01/02 19:03:56;;;;;;;2.70;1.02;;;10.10;99.90;;;;;;10202422;23;20017;-76
2023/01/02 19:08:06;;;;;;;2.45;1.08;;;10.40;99.90;;;;;;10202660;23;20071;-77
2023/01/02 19:16:32;;;;;;;2.80;1.35;;;10.30;99.90;;;;;;10228326;23;20096;-78
2023/01/02 19:20:32;;;;;;;3.15;1.25;;;10.30;99.90;;;;;;10228330;23;20005;-77
2023/01/02 19:24:36;;;;;;;3.75;0.85;;;10.40;99.90;;;;;;10199919;23;20355;-78
2023/01/02 19:28:47;;;;;;;4.80;1.50;;;10.30;99.90;;;;;;10229018;23;20367;-77
2023/01/02 19:32:48;;;;;;;2.78;1.02;;;10.30;99.90;;;;;;10202754;23;20088;-77
2023/01/02 19:36:53;;;;;;;2.42;1.10;;;10.50;99.90;;;;;;10204393;23;20016;-79
2023/01/02 19:40:54;;;;;;;2.85;1.38;;;10.50;99.90;;;;;;10203630;23;20012;-77
2023/01/02 19:44:57;;;;;;;3.63;1.20;;;10.40;99.90;;;;;;10204776;23;20092;-77
2023/01/02 19:48:57;;;;;;;1.88;0.95;;;10.60;99.90;;;;;;10228352;23;20005;-78
2023/01/02 19:52:58;;;;;;;1.73;1.10;;;10.50;99.90;;;;;;10202345;23;20055;-78
2023/01/02 19:56:58;;;;;;;2.25;1.17;;;10.50;99.90;;;;;;10228442;23;20443;-77
2023/01/02 20:00:59;;;;;;;5.07;1.45;;;10.50;99.90;;;;;;10201825;23;20008;-77
2023/01/02 20:04:59;;;;;;;3.75;1.23;;;10.30;99.90;;;;;;10201869;23;20064;-77
2023/01/02 20:09:00;;;;;;;2.58;1.13;;;10.50;99.90;;;;;;10201558;23;20502;-77
2023/01/02 20:13:01;;;;;;;3.13;1.10;;;10.40;99.90;;;;;;10201529;23;20001;-77
2023/01/02 20:17:02;;;;;;;1.85;1.02;;;10.40;99.90;;;;;;10227411;23;20095;-77
2023/01/02 20:21:02;;;;;;;2.17;1.00;;;10.50;99.90;;;;;;10228594;23;20347;-77
2023/01/02 20:25:03;;;;;;;2.53;1.10;;;10.30;99.90;;;;;;10225646;23;20005;-77
2023/01/02 20:29:04;;;;;;;4.63;1.30;;;10.40;99.90;;;;;;10202221;23;20020;-77
2023/01/02 20:33:04;;;;;;;3.05;1.05;;;10.50;99.90;;;;;;10200835;23;20417;-77
2023/01/02 20:37:05;;;;;;;2.00;1.02;;;10.60;99.90;;;;;;10200731;23;20020;-76
2023/01/02 20:41:05;;;;;;;2.25;1.20;;;10.50;99.90;;;;;;10200181;23;20366;-78
2023/01/02 20:45:07;;;;;;;3.78;1.08;;;10.60;99.90;;;;;;10226828;23;20016;-78
2023/01/02 20:49:08;;;;;;;2.97;1.30;;;10.50;99.90;;;;;;10226853;23;20070;-77
2023/01/02 20:53:09;;;;;;;2.83;1.27;;;10.50;99.90;;;;;;10201246;23;20470;-78
2023/01/02 20:57:09;;;;;;;2.30;1.20;;;10.50;99.90;;;;;;10226640;23;20004;-76
2023/01/02 21:01:10;;;;;;;2.33;1.20;;;10.40;99.90;;;;;;10226868;23;20080;-77
2023/01/02 21:05:10;;;;;;;1.85;1.00;;;10.40;99.90;;;;;;10226842;23;20017;-77
2023/01/02 21:09:11;;;;;;;2.72;1.27;;;10.30;99.90;;;;;;10203909;23;20001;-77
2023/01/02 21:13:11;;;;;;;2.33;1.35;;;10.20;99.90;;;;;;10231059;23;20001;-77
2023/01/02 21:17:12;;;;;;;4.53;1.25;;;10.20;99.90;;;;;;10230869;23;20032;-77
2023/01/02 21:21:19;;;;;;;1.63;1.10;;;10.30;99.90;;;;;;10203966;23;20356;-78